Time;durP1;ratioP1;P1;durP2;ratioP2;P2;SDS_P1;SDS_P2;PMS_P1;PMS_P2;Temp;Humidity;BMP_temperature;BMP_pressure;BME280_temperature;BME280_humidity;BME280_pressure;Samples;Min_cycle;Max_cycle;Signal;HPM_P1;HPM_P2
2024/01/06 00:01:45;;;;;;;10.60;7.27;;;4.70;81.90;;;;;;6276538;28;20191;-66
2024/01/06 00:04:46;;;;;;;11.90;8.13;;;4.70;81.60;;;;;;6273658;28;20299;-66
2024/01/06 00:07:47;;;;;;;11.57;6.80;;;4.70;81.50;;;;;;6283196;28;20220;-66
2024/01/06 00:10:47;;;;;;;8.67;6.20;;;4.70;81.80;;;;;;6265750;28;20189;-66
2024/01/06 00:13:48;;;;;;;8.43;6.27;;;4.80;81.50;;;;;;6269567;28;20187;-66
2024/01/06 00:16:49;;;;;;;13.53;7.13;;;4.70;81.10;;;;;;6276774;28;20188;-66
2024/01/06 00:19:51;;;;;;;11.53;7.43;;;4.80;80.90;;;;;;6288739;28;20279;-66
2024/01/06 00:22:51;;;;;;;11.60;7.07;;;4.70;81.40;;;;;;6288670;28;20189;-66
2024/01/06 00:25:52;;;;;;;11.40;6.63;;;4.80;81.70;;;;;;6266075;28;20220;-66
2024/01/06 00:28:53;;;;;;;8.87;5.93;;;4.90;81.70;;;;;;6285827;28;20196;-66
2024/01/06 00:31:53;;;;;;;10.20;5.73;;;4.90;82.10;;;;;;6279162;28;20189;-66
2024/01/06 00:34:54;;;;;;;9.93;6.57;;;4.90;82.10;;;;;;6264246;28;20193;-66
2024/01/06 00:37:55;;;;;;;9.53;5.83;;;4.90;81.80;;;;;;6277139;28;20197;-66
2024/01/06 00:40:56;;;;;;;8.63;6.03;;;4.90;81.30;;;;;;6262286;28;20185;-66
2024/01/06 00:43:56;;;;;;;10.77;6.90;;;4.90;81.00;;;;;;6273389;28;20223;-65
2024/01/06 00:46:57;;;;;;;9.77;6.50;;;4.90;81.00;;;;;;6265833;28;20239;-65
2024/01/06 00:49:58;;;;;;;12.00;7.07;;;4.90;81.10;;;;;;6265926;28;20188;-65
2024/01/06 00:52:58;;;;;;;11.40;7.13;;;4.90;81.20;;;;;;6262674;28;20189;-66
2024/01/06 00:55:59;;;;;;;10.17;6.80;;;4.90;81.60;;;;;;6266784;28;20202;-66
2024/01/06 00:59:00;;;;;;;11.23;6.50;;;4.90;81.70;;;;;;6286785;28;20309;-65
2024/01/06 01:02:01;;;;;;;11.13;7.30;;;4.80;81.70;;;;;;6270898;28;20184;-66
2024/01/06 01:05:02;;;;;;;9.10;6.43;;;4.80;81.70;;;;;;6266179;28;20252;-66
2024/01/06 01:08:02;;;;;;;10.37;6.90;;;4.80;81.90;;;;;;6266606;28;20187;-66
2024/01/06 01:11:03;;;;;;;10.70;7.27;;;4.90;82.40;;;;;;6269435;28;20275;-66
2024/01/06 01:14:04;;;;;;;9.00;6.70;;;4.90;82.20;;;;;;6304827;28;20181;-66
2024/01/06 01:17:05;;;;;;;8.67;6.30;;;4.90;82.00;;;;;;6267050;28;20189;-66
2024/01/06 01:20:06;;;;;;;8.73;6.60;;;4.90;82.20;;;;;;6281112;28;20190;-66
2024/01/06 01:23:07;;;;;;;8.40;5.97;;;4.90;82.10;;;;;;6283136;28;20218;-66
2024/01/06 01:26:07;;;;;;;11.30;7.07;;;4.90;82.00;;;;;;6257740;28;20204;-66
2024/01/06 01:29:08;;;;;;;8.93;6.50;;;4.90;82.00;;;;;;6273010;28;20216;-66
2024/01/06 01:32:09;;;;;;;10.13;7.33;;;4.90;82.20;;;;;;6270224;28;20242;-66
2024/01/06 01:35:09;;;;;;;10.90;7.10;;;4.90;82.30;;;;;;6281208;28;20190;-66
2024/01/06 01:38:10;;;;;;;12.57;8.83;;;4.90;82.40;;;;;;6270670;28;20742;-66
2024/01/06 01:41:11;;;;;;;14.03;8.60;;;4.90;82.10;;;;;;6279026;28;20185;-66
2024/01/06 01:44:12;;;;;;;15.33;7.77;;;5.00;82.20;;;;;;6268259;28;20264;-66
2024/01/06 01:47:14;;;;;;;13.90;7.87;;;4.90;82.40;;;;;;6279309;28;20220;-66
2024/01/06 01:50:15;;;;;;;11.70;8.47;;;4.90;82.50;;;;;;6280030;28;20180;-66
2024/01/06 01:53:16;;;;;;;9.53;7.27;;;4.90;82.40;;;;;;6281730;28;20238;-66
2024/01/06 01:56:17;;;;;;;9.33;6.83;;;5.00;82.50;;;;;;6276580;28;20192;-66
2024/01/06 01:59:19;;;;;;;12.27;7.83;;;4.90;82.80;;;;;;6277319;28;20239;-66
2024/01/06 02:02:22;;;;;;;11.90;8.07;;;4.90;81.70;;;;;;6293632;28;20241;-66
2024/01/06 02:05:22;;;;;;;12.10;7.03;;;4.90;82.80;;;;;;6298379;28;20672;-65
2024/01/06 02:08:23;;;;;;;11.27;6.60;;;4.90;83.10;;;;;;6272714;28;20206;-65
2024/01/06 02:11:24;;;;;;;9.60;6.00;;;4.80;82.40;;;;;;6265745;28;20189;-66
2024/01/06 02:14:25;;;;;;;9.43;6.20;;;4.80;81.90;;;;;;6260612;28;20196;-66
2024/01/06 02:17:26;;;;;;;12.17;6.43;;;4.80;81.80;;;;;;6252058;28;20275;-66
2024/01/06 02:20:30;;;;;;;10.90;5.67;;;4.80;81.90;;;;;;6284221;28;20182;-66
2024/01/06 02:23:30;;;;;;;7.87;5.27;;;4.70;81.00;;;;;;6304788;28;20204;-66
2024/01/06 02:26:31;;;;;;;6.90;5.63;;;4.70;81.50;;;;;;6289556;28;20203;-66
2024/01/06 02:29:32;;;;;;;9.40;6.00;;;4.80;81.50;;;;;;6266132;28;20250;-66
2024/01/06 02:32:32;;;;;;;10.33;7.00;;;4.70;81.40;;;;;;6260625;28;20204;-66
2024/01/06 02:35:33;;;;;;;9.27;6.37;;;4.70;81.50;;;;;;6261417;28;20197;-66
2024/01/06 02:38:34;;;;;;;8.43;5.97;;;4.70;81.90;;;;;;6270675;28;20192;-65
2024/01/06 02:41:35;;;;;;;10.53;6.20;;;4.70;82.20;;;;;;6268276;28;20189;-65
2024/01/06 02:44:35;;;;;;;7.33;5.03;;;4.70;82.00;;;;;;6289755;28;20199;-66
2024/01/06 02:47:36;;;;;;;10.97;5.57;;;4.70;82.10;;;;;;6264105;28;20181;-66
2024/01/06 02:50:37;;;;;;;8.30;5.70;;;4.70;81.90;;;;;;6282065;28;20212;-66
2024/01/06 02:53:37;;;;;;;7.97;5.27;;;4.70;82.00;;;;;;6278022;28;20213;-66
2024/01/06 02:56:38;;;;;;;6.80;5.37;;;4.70;82.10;;;;;;6274862;28;20235;-66
2024/01/06 02:59:39;;;;;;;7.83;5.47;;;4.70;82.30;;;;;;6269624;28;20196;-66
2024/01/06 03:02:42;;;;;;;9.53;5.57;;;4.70;82.30;;;;;;6291366;28;20245;-65
2024/01/06 03:05:43;;;;;;;7.83;5.40;;;4.70;82.60;;;;;;6270589;28;20216;-66
2024/01/06 03:08:43;;;;;;;10.97;6.07;;;4.70;82.50;;;;;;6262919;28;20280;-66
2024/01/06 03:11:44;;;;;;;9.27;5.43;;;4.70;83.00;;;;;;6277558;28;20196;-65
2024/01/06 03:14:45;;;;;;;8.70;5.77;;;4.70;82.70;;;;;;6273008;28;20200;-66
2024/01/06 03:17:46;;;;;;;9.20;6.40;;;4.70;82.90;;;;;;6256090;28;20184;-66
2024/01/06 03:20:46;;;;;;;8.07;6.00;;;4.70;83.20;;;;;;6277077;28;20252;-66
2024/01/06 03:23:49;;;;;;;9.57;5.93;;;4.70;83.20;;;;;;6280126;28;20187;-66
2024/01/06 03:26:50;;;;;;;13.23;6.10;;;4.70;83.50;;;;;;6288536;28;20310;-66
2024/01/06 03:29:51;;;;;;;8.70;5.87;;;4.80;83.30;;;;;;6285467;28;20190;-66
2024/01/06 03:32:51;;;;;;;8.43;5.57;;;4.80;83.30;;;;;;6268064;28;20208;-66
2024/01/06 03:35:52;;;;;;;7.63;5.37;;;4.90;83.20;;;;;;6291365;28;20193;-66
2024/01/06 03:38:53;;;;;;;8.73;5.17;;;4.90;83.40;;;;;;6266720;28;20204;-66
2024/01/06 03:41:53;;;;;;;5.33;4.17;;;4.90;83.00;;;;;;6258841;28;20184;-66
2024/01/06 03:44:54;;;;;;;9.50;5.40;;;4.90;82.80;;;;;;6278389;28;20215;-66
2024/01/06 03:47:55;;;;;;;6.67;4.23;;;4.90;82.50;;;;;;6289339;28;20194;-66
2024/01/06 03:50:55;;;;;;;10.17;5.50;;;4.90;82.60;;;;;;6273524;28;20192;-65
2024/01/06 03:53:56;;;;;;;8.10;5.73;;;4.90;82.70;;;;;;6254969;28;20182;-65
2024/01/06 03:56:57;;;;;;;9.20;6.40;;;4.90;82.70;;;;;;6268423;28;20229;-65
2024/01/06 03:59:57;;;;;;;8.90;6.23;;;5.00;83.10;;;;;;6257911;28;20188;-66
2024/01/06 04:02:58;;;;;;;9.33;6.57;;;5.00;82.90;;;;;;6290575;28;20192;-66
2024/01/06 04:05:59;;;;;;;10.33;6.10;;;5.00;82.70;;;;;;6288550;28;20198;-66
2024/01/06 04:09:00;;;;;;;8.47;6.50;;;5.00;82.60;;;;;;6270035;28;20245;-66
2024/01/06 04:12:01;;;;;;;6.47;5.57;;;5.00;82.80;;;;;;6300304;28;20209;-66
2024/01/06 04:15:03;;;;;;;7.33;5.80;;;5.00;82.80;;;;;;6256694;28;20189;-66
2024/01/06 04:18:04;;;;;;;10.60;7.90;;;5.00;83.00;;;;;;6288643;28;20184;-66
2024/01/06 04:21:05;;;;;;;9.90;6.70;;;5.00;83.00;;;;;;6292977;28;20237;-66
2024/01/06 04:24:06;;;;;;;8.37;6.23;;;5.00;83.20;;;;;;6285517;28;20192;-66
2024/01/06 04:27:07;;;;;;;9.17;7.43;;;5.00;83.30;;;;;;6273558;28;20227;-66
2024/01/06 04:30:08;;;;;;;10.23;6.47;;;5.00;83.30;;;;;;6283611;28;20200;-66
2024/01/06 04:33:09;;;;;;;7.63;6.23;;;5.00;83.50;;;;;;6277708;28;20184;-66
2024/01/06 04:36:09;;;;;;;8.70;6.10;;;5.00;84.80;;;;;;6257325;28;20281;-66
2024/01/06 04:39:10;;;;;;;8.33;6.23;;;5.00;85.10;;;;;;6286533;28;20192;-66
2024/01/06 04:42:11;;;;;;;7.57;5.97;;;5.00;85.20;;;;;;6265239;28;20200;-66
2024/01/06 04:45:12;;;;;;;8.53;6.03;;;5.00;85.50;;;;;;6285384;28;20295;-66
2024/01/06 04:48:12;;;;;;;7.83;6.03;;;5.00;85.40;;;;;;6268093;28;20207;-66
2024/01/06 04:51:13;;;;;;;8.40;5.60;;;5.00;85.70;;;;;;6282590;28;20631;-66
2024/01/06 04:54:14;;;;;;;7.43;5.43;;;5.00;85.20;;;;;;6265633;28;20255;-66
2024/01/06 04:57:15;;;;;;;8.07;5.97;;;5.00;85.60;;;;;;6264445;28;20634;-66
2024/01/06 05:00:16;;;;;;;8.40;5.87;;;;;;;;;;6266192;28;20193;-66
2024/01/06 05:03:18;;;;;;;8.37;5.90;;;;;;;;;;6292222;28;20193;-66
2024/01/06 05:06:19;;;;;;;6.73;5.40;;;;;;;;;;6281534;28;20209;-66
2024/01/06 05:09:20;;;;;;;7.33;5.50;;;;;;;;;;6297524;28;20193;-66
2024/01/06 05:12:21;;;;;;;7.13;5.63;;;;;;;;;;6272429;28;20241;-66
2024/01/06 05:15:22;;;;;;;6.77;5.57;;;;;;;;;;6285870;28;20222;-66
2024/01/06 05:18:23;;;;;;;7.73;5.43;;;;;;;;;;6275905;28;20272;-66
2024/01/06 05:21:25;;;;;;;8.57;5.03;;;;;;;;;;6281132;28;20235;-65
2024/01/06 05:24:26;;;;;;;8.33;5.87;;;;;;;;;;6276894;28;20291;-65
2024/01/06 05:27:27;;;;;;;8.07;5.50;;;;;;;;;;6283573;28;20224;-65
2024/01/06 05:30:28;;;;;;;8.73;5.73;;;;;;;;;;6293721;28;20232;-65
2024/01/06 05:33:29;;;;;;;6.73;5.20;;;;;;;;;;6289141;28;20188;-65
2024/01/06 05:36:30;;;;;;;7.60;4.93;;;;;;;;;;6280759;28;20402;-65
2024/01/06 05:39:31;;;;;;;9.30;6.03;;;;;;;;;;6278439;28;20279;-65
2024/01/06 05:42:32;;;;;;;11.07;5.90;;;;;;;;;;6267776;28;20660;-65
2024/01/06 05:45:34;;;;;;;8.87;5.60;;;;;;;;;;6278797;28;20241;-65
2024/01/06 05:48:35;;;;;;;9.77;6.50;;;;;;;;;;6278855;28;20193;-65
2024/01/06 05:51:36;;;;;;;9.80;6.63;;;;;;;;;;6285231;28;20189;-65
2024/01/06 05:54:37;;;;;;;9.37;6.67;;;;;;;;;;6281359;28;20195;-65
2024/01/06 05:57:38;;;;;;;8.30;5.70;;;;;;;;;;6277431;28;20282;-65
2024/01/06 06:00:39;;;;;;;7.43;5.37;;;;;;;;;;6285024;28;20200;-65
2024/01/06 06:03:41;;;;;;;9.57;6.60;;;;;;;;;;6279411;28;20197;-65
2024/01/06 06:06:42;;;;;;;9.80;6.40;;;;;;;;;;6293658;28;20226;-66
2024/01/06 06:09:43;;;;;;;8.40;5.90;;;;;;;;;;6283791;28;20200;-65
2024/01/06 06:12:44;;;;;;;6.97;5.67;;;;;;;;;;6313476;28;20211;-65
2024/01/06 06:15:45;;;;;;;8.70;6.03;;;;;;;;;;6290809;28;20204;-66
2024/01/06 06:18:46;;;;;;;8.90;6.00;;;;;;;;;;6282727;28;20192;-65
2024/01/06 06:21:47;;;;;;;8.20;5.50;;;;;;;;;;6292418;28;20200;-65
2024/01/06 06:24:48;;;;;;;8.67;5.50;;;;;;;;;;6292939;28;20761;-65
2024/01/06 06:27:49;;;;;;;9.33;5.27;;;;;;;;;;6303768;28;20184;-65
2024/01/06 06:30:50;;;;;;;7.63;4.87;;;;;;;;;;6288645;28;20206;-66
2024/01/06 06:33:51;;;;;;;9.07;6.53;;;;;;;;;;6298163;28;20256;-65
2024/01/06 06:36:52;;;;;;;9.73;5.37;;;;;;;;;;6288635;28;20196;-65
2024/01/06 06:39:53;;;;;;;9.17;5.70;;;;;;;;;;6287594;28;20597;-66
2024/01/06 06:42:54;;;;;;;12.90;5.83;;;;;;;;;;6284019;28;20197;-65
2024/01/06 06:45:55;;;;;;;8.23;5.70;;;;;;;;;;6289310;28;20239;-65
2024/01/06 06:48:56;;;;;;;6.20;4.97;;;;;;;;;;6293014;28;20208;-65
2024/01/06 06:51:57;;;;;;;7.00;5.17;;;;;;;;;;6284951;28;20192;-65
2024/01/06 06:54:58;;;;;;;8.30;5.97;;;;;;;;;;6284916;28;20198;-65
2024/01/06 06:57:59;;;;;;;8.13;5.33;;;;;;;;;;6289094;28;20240;-64
2024/01/06 07:01:00;;;;;;;8.17;5.40;;;;;;;;;;6285059;28;20196;-64
2024/01/06 07:04:05;;;;;;;9.73;5.67;;;;;;;;;;6290571;28;20197;-64
2024/01/06 07:07:06;;;;;;;7.80;5.80;;;;;;;;;;6300861;28;20209;-64
2024/01/06 07:10:07;;;;;;;9.13;5.23;;;;;;;;;;6294865;28;20188;-66
2024/01/06 07:13:08;;;;;;;9.53;5.87;;;;;;;;;;6287196;28;20197;-63
2024/01/06 07:16:09;;;;;;;9.70;6.20;;;;;;;;;;6281957;28;20196;-63
2024/01/06 07:19:10;;;;;;;9.90;5.30;;;;;;;;;;6305748;28;20216;-64
2024/01/06 07:22:11;;;;;;;11.30;5.53;;;;;;;;;;6280717;28;20203;-63
2024/01/06 07:25:12;;;;;;;9.03;5.60;;;;;;;;;;6277216;28;20224;-67
2024/01/06 07:28:13;;;;;;;7.80;5.70;;;;;;;;;;6274978;28;20197;-65
2024/01/06 07:31:15;;;;;;;10.33;5.60;;;;;;;;;;6285918;28;20225;-67
2024/01/06 07:34:16;;;;;;;10.43;5.90;;;;;;;;;;6282008;28;20184;-65
2024/01/06 07:37:17;;;;;;;11.10;5.50;;;;;;;;;;6299911;28;20287;-76
2024/01/06 07:40:18;;;;;;;8.57;5.53;;;;;;;;;;6277666;28;20204;-62
2024/01/06 07:43:19;;;;;;;10.23;6.77;;;;;;;;;;6285256;28;20197;-63
2024/01/06 07:46:20;;;;;;;10.00;6.40;;;;;;;;;;6278618;28;20208;-64
2024/01/06 07:49:21;;;;;;;10.20;6.37;;;;;;;;;;6279588;28;20288;-64
2024/01/06 07:52:22;;;;;;;12.33;6.70;;;;;;;;;;6281384;28;20277;-63
2024/01/06 07:55:23;;;;;;;18.40;11.43;;;;;;;;;;6275172;28;20197;-63
2024/01/06 07:58:24;;;;;;;19.43;11.90;;;;;;;;;;6282236;28;20233;-64
2024/01/06 08:01:25;;;;;;;21.90;13.40;;;;;;;;;;6266849;28;20189;-65
2024/01/06 08:04:26;;;;;;;20.97;12.70;;;;;;;;;;6284839;28;20193;-65
2024/01/06 08:07:28;;;;;;;12.63;9.27;;;;;;;;;;6263570;28;20283;-65
2024/01/06 08:10:29;;;;;;;16.07;10.20;;;;;;;;;;6264479;28;20197;-66
2024/01/06 08:13:30;;;;;;;15.70;10.50;;;;;;;;;;6271174;28;20202;-65
2024/01/06 08:16:32;;;;;;;10.60;8.00;;;;;;;;;;6272187;28;20196;-63
2024/01/06 08:19:33;;;;;;;16.53;9.00;;;;;;;;;;6270039;28;20198;-64
2024/01/06 08:22:34;;;;;;;11.63;7.73;;;;;;;;;;6279232;28;20261;-64
2024/01/06 08:25:35;;;;;;;12.63;7.37;;;;;;;;;;6280760;28;20306;-64
2024/01/06 08:28:37;;;;;;;10.77;7.57;;;;;;;;;;6262486;28;20197;-64
2024/01/06 08:31:38;;;;;;;11.57;7.47;;;;;;;;;;6280339;28;20262;-64
2024/01/06 08:34:39;;;;;;;10.27;6.50;;;;;;;;;;6273910;28;20213;-64
2024/01/06 08:37:40;;;;;;;9.37;6.77;;;;;;;;;;6285532;28;20192;-64
2024/01/06 08:40:41;;;;;;;10.93;6.83;;;;;;;;;;6271824;28;20189;-64
2024/01/06 08:43:42;;;;;;;10.17;7.37;;;;;;;;;;6269379;28;20198;-64
2024/01/06 08:46:43;;;;;;;11.27;7.40;;;;;;;;;;6272633;28;20229;-64
2024/01/06 08:49:44;;;;;;;8.63;7.00;;;;;;;;;;6268205;28;20193;-64
2024/01/06 08:52:45;;;;;;;9.57;6.93;;;;;;;;;;6271876;28;20814;-64
2024/01/06 08:55:47;;;;;;;7.60;6.23;;;;;;;;;;6273915;28;20212;-63
2024/01/06 08:58:48;;;;;;;9.17;7.63;;;;;;;;;;6266844;28;20247;-63
2024/01/06 09:01:49;;;;;;;9.23;8.30;;;;;;;;;;6277473;28;20203;-63
2024/01/06 09:04:50;;;;;;;12.17;8.30;;;;;;;;;;6269481;28;20224;-64
2024/01/06 09:07:51;;;;;;;10.37;7.60;;;;;;;;;;6270689;28;20276;-64
2024/01/06 09:10:55;;;;;;;8.97;7.87;;;;;;;;;;6282006;28;20186;-63
2024/01/06 09:13:56;;;;;;;13.60;8.40;;;;;;;;;;6275539;28;20186;-64
2024/01/06 09:16:57;;;;;;;11.80;9.33;;;;;;;;;;6276535;28;20396;-64
2024/01/06 09:19:58;;;;;;;17.20;10.83;;;;;;;;;;6291831;28;20189;-63
2024/01/06 09:22:59;;;;;;;16.27;11.17;;;;;;;;;;6272105;28;20189;-63
2024/01/06 09:26:00;;;;;;;18.00;11.83;;;;;;;;;;6282896;28;20212;-63
2024/01/06 09:29:02;;;;;;;16.23;10.73;;;;;;;;;;6281195;28;20196;-63
2024/01/06 09:32:03;;;;;;;13.80;10.37;;;;;;;;;;6289868;28;20219;-64
2024/01/06 09:35:05;;;;;;;14.90;10.23;;;;;;;;;;6276081;28;20285;-63
2024/01/06 09:38:07;;;;;;;12.60;10.70;;;;;;;;;;6265031;28;20224;-63
2024/01/06 09:41:08;;;;;;;15.90;12.27;;;;;;;;;;6269856;28;20246;-64
2024/01/06 09:44:09;;;;;;;14.67;10.23;;;;;;;;;;6275758;28;20669;-64
2024/01/06 09:47:12;;;;;;;14.33;9.03;;;;;;;;;;6270216;28;20795;-64
2024/01/06 09:50:14;;;;;;;12.60;10.33;;;;;;;;;;6294377;28;20193;-64
2024/01/06 09:53:15;;;;;;;10.77;8.90;;;;;;;;;;6273233;28;20273;-64
2024/01/06 09:56:18;;;;;;;10.93;8.50;;;;;;;;;;6269776;28;20230;-64
2024/01/06 09:59:20;;;;;;;13.77;9.20;;;;;;;;;;6278834;28;20240;-64
2024/01/06 10:02:22;;;;;;;14.37;8.80;;;;;;;;;;6296906;28;20199;-64
2024/01/06 10:05:24;;;;;;;12.23;9.77;;;;;;;;;;6296645;28;20224;-64
2024/01/06 10:08:26;;;;;;;11.83;8.83;;;;;;;;;;6299197;28;20189;-64
2024/01/06 10:11:27;;;;;;;11.90;9.77;;;;;;;;;;6299036;28;20696;-64
2024/01/06 10:14:28;;;;;;;13.20;9.03;;;;;;;;;;6275300;28;20201;-64
2024/01/06 10:17:29;;;;;;;15.87;9.80;;;;;;;;;;6279753;28;20208;-64
2024/01/06 10:20:30;;;;;;;16.10;10.60;;;;;;;;;;6294549;28;20188;-67
2024/01/06 10:23:32;;;;;;;17.50;12.03;;;;;;;;;;6286835;28;20253;-65
2024/01/06 10:26:34;;;;;;;21.53;11.37;;;;;;;;;;6298872;28;20248;-65
2024/01/06 10:29:35;;;;;;;13.93;10.30;;;;;;;;;;6274713;28;20190;-65
2024/01/06 10:32:36;;;;;;;15.43;11.10;;;;;;;;;;6288104;28;20196;-64
2024/01/06 10:35:38;;;;;;;16.63;11.80;;;;;;;;;;6282464;28;20251;-64
2024/01/06 10:38:40;;;;;;;17.97;12.23;;;;;;;;;;6283935;28;20663;-64
2024/01/06 10:41:42;;;;;;;14.33;11.70;;;;;;;;;;6296236;28;20197;-64
2024/01/06 10:44:45;;;;;;;16.80;11.83;;;;;;;;;;6293372;28;20200;-64
2024/01/06 10:47:46;;;;;;;16.80;11.67;;;;;;;;;;6318323;28;20184;-64
2024/01/06 10:50:47;;;;;;;18.53;11.67;;;;;;;;;;6271537;28;20189;-64
2024/01/06 10:53:49;;;;;;;19.57;13.17;;;;;;;;;;6287473;28;20197;-64
2024/01/06 10:56:52;;;;;;;15.70;12.67;;;;;;;;;;6280087;28;20236;-64
2024/01/06 10:59:53;;;;;;;16.27;11.17;;;;;;;;;;6313361;28;20284;-64
2024/01/06 11:02:54;;;;;;;13.33;11.40;;;;;;;;;;6298955;28;20200;-64
2024/01/06 11:05:56;;;;;;;15.80;12.67;;;;;;;;;;6310173;28;20208;-64
2024/01/06 11:09:00;;;;;;;13.70;10.83;;;;;;;;;;6286261;28;20295;-65
2024/01/06 11:12:01;;;;;;;18.50;12.10;;;;;;;;;;6299064;28;20185;-64
2024/01/06 11:15:04;;;;;;;12.80;10.27;;;;;;;;;;6283005;28;20201;-64
2024/01/06 11:18:05;;;;;;;18.37;11.93;;;;;;;;;;6288190;28;20292;-65
2024/01/06 11:21:12;;;;;;;16.47;12.57;;;;;;;;;;6274925;28;20193;-65
2024/01/06 11:24:16;;;;;;;17.60;12.03;;;;;;;;;;6303549;28;20189;-65
2024/01/06 11:27:18;;;;;;;18.20;11.37;;;;;;;;;;6296959;28;20215;-65
2024/01/06 11:30:21;;;;;;;14.93;12.03;;;;;;;;;;6287401;28;20291;-65
2024/01/06 11:33:22;;;;;;;17.03;11.97;;;;;;;;;;6300313;28;20252;-65
2024/01/06 11:36:23;;;;;;;18.00;12.90;;;;;;;;;;6278900;28;20204;-65
2024/01/06 11:39:35;;;;;;;16.37;12.30;;;;;;;;;;6280300;28;20203;-64
2024/01/06 11:42:36;;;;;;;18.00;12.23;;;;;;;;;;6297960;28;20181;-63
2024/01/06 11:45:38;;;;;;;22.27;12.33;;;;;;;;;;6296527;28;20209;-64
2024/01/06 11:48:41;;;;;;;18.52;14.05;;;;;;;;;;6292984;28;20732;-65
2024/01/06 11:51:43;;;;;;;20.07;12.93;;;;;;;;;;6299557;28;20223;-65
2024/01/06 11:54:45;;;;;;;14.43;10.57;;;5.00;85.80;;;;;;6302643;28;20198;-65
2024/01/06 11:57:47;;;;;;;16.20;12.43;;;5.60;99.90;;;;;;6287142;28;20232;-65
2024/01/06 12:00:57;;;;;;;19.67;14.20;;;5.60;99.90;;;;;;6298484;28;20189;-65
2024/01/06 12:03:58;;;;;;;19.90;13.03;;;5.60;99.90;;;;;;6283390;28;20288;-65
2024/01/06 12:07:08;;;;;;;17.73;13.83;;;5.60;99.90;;;;;;6272490;28;20218;-64
2024/01/06 12:10:10;;;;;;;19.93;14.23;;;5.60;99.90;;;;;;6289110;28;20181;-64
2024/01/06 12:13:12;;;;;;;19.13;14.10;;;5.60;99.90;;;;;;6267298;28;20205;-64
2024/01/06 12:16:12;;;;;;;18.83;14.50;;;5.60;99.90;;;;;;6272282;28;20189;-64
2024/01/06 12:19:13;;;;;;;22.07;15.37;;;5.60;99.90;;;;;;6290034;28;20231;-64
2024/01/06 12:22:15;;;;;;;31.60;17.30;;;5.60;99.90;;;;;;6288877;28;20310;-64
2024/01/06 12:25:16;;;;;;;24.10;15.27;;;5.70;99.90;;;;;;6297291;28;20227;-64
2024/01/06 12:28:16;;;;;;;22.90;15.87;;;5.70;99.90;;;;;;6268226;28;20188;-65
2024/01/06 12:31:19;;;;;;;22.10;15.20;;;5.70;99.90;;;;;;6267293;28;20188;-64
2024/01/06 12:34:20;;;;;;;22.57;16.83;;;;;;;;;;6277497;28;20200;-64
2024/01/06 12:37:23;;;;;;;17.87;14.23;;;;;;;;;;6301980;28;20291;-64
2024/01/06 12:40:24;;;;;;;22.43;15.33;;;5.70;99.90;;;;;;6301666;28;20193;-65
2024/01/06 12:43:25;;;;;;;18.87;14.93;;;5.80;99.90;;;;;;6277177;28;20202;-66
2024/01/06 12:46:26;;;;;;;22.27;15.53;;;5.80;99.90;;;;;;6303051;28;20209;-65
2024/01/06 12:49:27;;;;;;;24.47;15.83;;;5.80;99.90;;;;;;6267918;28;20193;-65
2024/01/06 12:52:28;;;;;;;22.30;15.47;;;5.80;99.90;;;;;;6259644;28;20217;-65
2024/01/06 12:55:28;;;;;;;17.67;14.30;;;5.80;99.90;;;;;;6281013;28;20192;-65
2024/01/06 12:58:29;;;;;;;19.20;14.67;;;5.80;99.90;;;;;;6265967;28;20240;-65
2024/01/06 13:01:30;;;;;;;19.17;13.63;;;5.80;99.90;;;;;;6256423;28;20210;-64
2024/01/06 13:04:31;;;;;;;17.33;12.93;;;5.80;99.90;;;;;;6272558;28;20203;-72
2024/01/06 13:07:31;;;;;;;29.60;14.23;;;5.80;99.90;;;;;;6286335;28;20219;-71
2024/01/06 13:10:34;;;;;;;12.60;9.20;;;5.80;99.90;;;;;;6280697;28;20212;-72
2024/01/06 13:13:34;;;;;;;10.30;8.17;;;5.70;99.90;;;;;;6266617;28;20195;-71
2024/01/06 13:16:36;;;;;;;8.20;7.10;;;5.70;99.90;;;;;;6263985;28;20200;-71
2024/01/06 13:19:36;;;;;;;9.10;6.23;;;5.70;99.90;;;;;;6262940;28;20204;-71
2024/01/06 13:22:39;;;;;;;6.10;5.30;;;5.70;99.90;;;;;;6278897;28;20223;-72
2024/01/06 13:25:40;;;;;;;7.83;5.03;;;5.70;99.90;;;;;;6288824;28;20215;-71
2024/01/06 13:28:41;;;;;;;6.93;4.67;;;5.70;99.90;;;;;;6264922;28;20188;-72
2024/01/06 13:31:41;;;;;;;6.67;4.30;;;5.70;99.90;;;;;;6265440;28;20193;-72
2024/01/06 13:34:42;;;;;;;6.70;3.83;;;5.70;99.90;;;;;;6285587;28;20188;-71
2024/01/06 13:37:45;;;;;;;4.73;3.13;;;5.60;99.90;;;;;;6284262;28;20220;-72
2024/01/06 13:40:46;;;;;;;9.10;3.80;;;5.60;99.90;;;;;;6257029;28;20194;-72
2024/01/06 13:43:46;;;;;;;2.10;1.77;;;5.60;99.90;;;;;;6277356;28;20227;-72
2024/01/06 13:46:50;;;;;;;2.27;2.07;;;;;;;;;;6261890;28;20204;-71
2024/01/06 13:49:51;;;;;;;5.50;2.50;;;;;;;;;;6293892;28;20218;-70
2024/01/06 13:52:54;;;;;;;5.07;2.90;;;;;;;;;;6279059;28;20271;-70
2024/01/06 13:55:55;;;;;;;3.37;3.07;;;;;;;;;;6293659;28;20200;-70
2024/01/06 13:58:57;;;;;;;3.50;2.80;;;;;;;;;;6281004;28;20225;-71
2024/01/06 14:01:58;;;;;;;3.27;2.80;;;;;;;;;;6304738;28;20192;-70
2024/01/06 14:04:59;;;;;;;4.60;2.30;;;;;;;;;;6281925;28;20208;-70
2024/01/06 14:08:00;;;;;;;6.40;2.60;;;;;;;;;;6288875;28;20199;-70
2024/01/06 14:11:01;;;;;;;2.27;2.07;;;;;;;;;;6287064;28;20219;-70
2024/01/06 14:14:02;;;;;;;3.33;2.03;;;;;;;;;;6297532;28;20220;-70
2024/01/06 14:17:03;;;;;;;3.33;2.17;;;;;;;;;;6305759;28;20189;-70
2024/01/06 14:20:05;;;;;;;5.83;1.93;;;;;;;;;;6283575;28;20197;-70
2024/01/06 14:23:06;;;;;;;1.83;1.37;;;;;;;;;;6288254;28;20215;-70
2024/01/06 14:26:07;;;;;;;1.97;1.70;;;;;;;;;;6292428;28;20261;-70
2024/01/06 14:29:08;;;;;;;2.13;1.77;;;;;;;;;;6287151;28;20200;-70
2024/01/06 14:32:09;;;;;;;2.73;1.90;;;;;;;;;;6276872;28;20189;-70
2024/01/06 14:35:11;;;;;;;2.53;1.97;;;;;;;;;;6317145;28;20180;-70
2024/01/06 14:38:12;;;;;;;2.17;1.97;;;;;;;;;;6296625;28;20184;-70
2024/01/06 14:41:13;;;;;;;2.03;1.77;;;;;;;;;;6289068;28;20290;-70
2024/01/06 14:44:14;;;;;;;3.73;1.73;;;;;;;;;;6283809;28;20565;-70
2024/01/06 14:47:15;;;;;;;2.07;1.80;;;;;;;;;;6292212;28;20204;-70
2024/01/06 14:50:16;;;;;;;3.27;2.53;;;;;;;;;;6285899;28;20200;-70
2024/01/06 14:53:17;;;;;;;1.90;1.67;;;;;;;;;;6303641;28;20184;-70
2024/01/06 14:56:18;;;;;;;4.10;1.50;;;;;;;;;;6306726;28;20199;-70
2024/01/06 14:59:20;;;;;;;2.83;1.97;;;;;;;;;;6315586;28;20235;-70
2024/01/06 15:02:21;;;;;;;1.87;1.50;;;;;;;;;;6292952;28;20288;-70
2024/01/06 15:05:22;;;;;;;1.37;1.20;;;;;;;;;;6303774;28;20211;-70
2024/01/06 15:08:23;;;;;;;3.50;2.53;;;;;;;;;;6296607;28;20185;-70
2024/01/06 15:11:24;;;;;;;1.90;1.50;;;;;;;;;;6293698;28;20200;-70
2024/01/06 15:14:25;;;;;;;2.47;2.23;;;;;;;;;;6284386;28;20189;-69
2024/01/06 15:17:27;;;;;;;4.27;3.50;;;;;;;;;;6274473;28;20193;-70
2024/01/06 15:20:28;;;;;;;2.43;2.17;;;;;;;;;;6287022;28;20200;-70
2024/01/06 15:23:29;;;;;;;1.33;1.23;;;;;;;;;;6287714;28;20214;-70
2024/01/06 15:26:30;;;;;;;1.67;1.40;;;;;;;;;;6286116;28;20220;-70
2024/01/06 15:29:31;;;;;;;1.87;1.70;;;;;;;;;;6280691;28;20256;-70
2024/01/06 15:32:32;;;;;;;1.43;1.33;;;;;;;;;;6277322;28;20279;-70
2024/01/06 15:35:34;;;;;;;1.83;1.53;;;;;;;;;;6287249;28;20220;-70
2024/01/06 15:38:35;;;;;;;2.93;1.30;;;;;;;;;;6287965;28;20326;-70
2024/01/06 15:41:36;;;;;;;1.60;1.50;;;;;;;;;;6279181;28;20196;-70
2024/01/06 15:44:37;;;;;;;1.70;1.40;;;;;;;;;;6288390;28;20238;-70
2024/01/06 15:47:39;;;;;;;1.37;1.27;;;;;;;;;;6272454;28;20213;-70
2024/01/06 15:50:40;;;;;;;1.30;1.17;;;;;;;;;;6288838;28;20662;-70
2024/01/06 15:53:41;;;;;;;1.53;1.23;;;;;;;;;;6291556;28;20254;-70
2024/01/06 15:56:42;;;;;;;1.50;1.07;;;;;;;;;;6288006;28;20196;-70
2024/01/06 15:59:43;;;;;;;2.13;1.70;;;;;;;;;;6279191;28;20196;-70
2024/01/06 16:02:44;;;;;;;1.60;1.50;;;;;;;;;;6286905;28;20196;-70
2024/01/06 16:05:45;;;;;;;1.80;1.50;;;;;;;;;;6285788;28;20221;-70
2024/01/06 16:08:46;;;;;;;4.50;1.97;;;;;;;;;;6282675;28;20185;-70
2024/01/06 16:11:47;;;;;;;1.40;1.30;;;;;;;;;;6290456;28;20195;-70
2024/01/06 16:14:48;;;;;;;1.27;1.17;;;;;;;;;;6282815;28;20189;-70
2024/01/06 16:17:49;;;;;;;1.40;1.03;;;;;;;;;;6266144;28;20207;-70
2024/01/06 16:20:50;;;;;;;1.93;1.30;;;;;;;;;;6276919;28;20283;-70
2024/01/06 16:23:51;;;;;;;1.60;1.10;;;;;;;;;;6274434;28;20188;-70
2024/01/06 16:26:53;;;;;;;1.40;1.20;;;;;;;;;;6295050;28;20216;-70
2024/01/06 16:29:54;;;;;;;11.13;1.80;;;;;;;;;;6290258;28;20192;-70
2024/01/06 16:32:55;;;;;;;2.07;1.20;;;;;;;;;;6294091;28;20199;-70
2024/01/06 16:35:56;;;;;;;1.27;1.17;;;;;;;;;;6302338;28;20199;-70
2024/01/06 16:38:57;;;;;;;1.07;1.00;;;;;;;;;;6289597;28;20199;-70
2024/01/06 16:41:58;;;;;;;1.80;1.20;;;;;;;;;;6285046;28;20192;-70
2024/01/06 16:44:59;;;;;;;1.17;1.07;;;;;;;;;;6278834;28;20195;-71
2024/01/06 16:48:01;;;;;;;1.67;1.20;;;;;;;;;;6288180;28;20204;-69
2024/01/06 16:51:02;;;;;;;1.63;1.20;;;;;;;;;;6288813;28;20192;-68
2024/01/06 16:54:03;;;;;;;1.40;1.30;;;;;;;;;;6284363;28;20224;-70
2024/01/06 16:57:04;;;;;;;1.13;1.00;;;;;;;;;;6276330;28;20243;-69
2024/01/06 17:00:05;;;;;;;1.30;1.20;;;;;;;;;;6314056;28;20183;-70